Time;durP1;ratioP1;P1;durP2;ratioP2;P2;SDS_P1;SDS_P2;PMS_P1;PMS_P2;Temp;Humidity;BMP_temperature;BMP_pressure;BME280_temperature;BME280_humidity;BME280_pressure;Samples;Min_cycle;Max_cycle;Signal;HPM_P1;HPM_P2
2023/11/06 00:01:20;;;;;;;2.00;0.80;;;13.60;65.50;;;;;;5032578;28;20185;-54
2023/11/06 00:03:45;;;;;;;4.00;1.13;;;13.40;66.10;;;;;;5037791;28;20265;-54
2023/11/06 00:06:11;;;;;;;2.40;1.37;;;13.30;66.90;;;;;;5028758;28;20328;-56
2023/11/06 00:08:37;;;;;;;1.40;1.00;;;13.40;67.10;;;;;;5027318;28;20213;-55
2023/11/06 00:11:03;;;;;;;3.60;1.57;;;13.30;67.00;;;;;;5032112;28;20990;-56
2023/11/06 00:13:29;;;;;;;5.83;1.10;;;13.40;66.90;;;;;;5030815;28;20189;-56
2023/11/06 00:15:54;;;;;;;1.23;0.90;;;13.30;66.90;;;;;;5029756;28;20763;-54
2023/11/06 00:18:20;;;;;;;1.70;1.00;;;13.40;67.00;;;;;;5029356;28;20213;-56
2023/11/06 00:20:45;;;;;;;1.97;1.00;;;13.40;67.00;;;;;;5029285;28;20272;-55
2023/11/06 00:23:11;;;;;;;2.23;0.87;;;13.40;67.40;;;;;;5030278;28;20652;-56
2023/11/06 00:25:37;;;;;;;2.30;1.33;;;13.40;67.50;;;;;;5029996;28;20197;-53
2023/11/06 00:28:03;;;;;;;1.27;1.00;;;13.40;67.20;;;;;;5029985;28;20193;-52
2023/11/06 00:30:29;;;;;;;7.13;1.50;;;13.50;67.30;;;;;;5030960;28;20563;-55
2023/11/06 00:32:54;;;;;;;3.60;1.60;;;13.30;67.50;;;;;;5029429;28;20459;-53
2023/11/06 00:35:20;;;;;;;2.40;1.43;;;13.30;68.20;;;;;;5028709;28;20181;-56
2023/11/06 00:37:45;;;;;;;4.30;1.97;;;13.20;68.40;;;;;;5029921;28;20216;-51
2023/11/06 00:40:11;;;;;;;1.47;1.20;;;13.20;68.70;;;;;;5032639;28;20219;-54
2023/11/06 00:42:37;;;;;;;1.53;1.03;;;13.20;69.20;;;;;;5030058;28;20181;-53
2023/11/06 00:45:04;;;;;;;2.63;0.90;;;13.30;68.40;;;;;;5037980;28;20227;-56
2023/11/06 00:47:29;;;;;;;5.87;1.57;;;13.40;67.80;;;;;;5027859;28;20197;-54
2023/11/06 00:49:55;;;;;;;2.13;1.13;;;13.20;67.80;;;;;;5028824;28;20475;-53
2023/11/06 00:52:21;;;;;;;1.50;1.00;;;13.20;68.70;;;;;;5028778;28;20220;-55
2023/11/06 00:54:47;;;;;;;1.63;1.07;;;13.20;67.90;;;;;;5029253;28;20319;-52
2023/11/06 00:57:13;;;;;;;3.90;1.47;;;13.40;67.80;;;;;;5032160;28;21002;-55
2023/11/06 00:59:39;;;;;;;2.57;1.30;;;13.30;67.50;;;;;;5029641;28;20224;-55
2023/11/06 01:02:05;;;;;;;2.93;1.10;;;13.10;67.00;;;;;;5034040;28;20443;-51
2023/11/06 01:04:30;;;;;;;2.83;1.20;;;13.30;67.80;;;;;;5034658;28;20218;-56
2023/11/06 01:06:56;;;;;;;1.60;1.10;;;13.40;67.40;;;;;;5033174;28;20181;-56
2023/11/06 01:09:22;;;;;;;2.23;1.23;;;13.50;67.10;;;;;;5038926;28;20248;-55
2023/11/06 01:11:48;;;;;;;2.53;1.00;;;13.30;67.70;;;;;;5037066;28;20506;-52
2023/11/06 01:14:14;;;;;;;4.70;1.30;;;13.40;67.60;;;;;;5037925;28;20243;-51
2023/11/06 01:16:40;;;;;;;2.30;1.00;;;13.50;67.20;;;;;;5030373;28;20436;-54
2023/11/06 01:19:05;;;;;;;2.93;1.40;;;13.50;67.40;;;;;;5034720;28;20470;-53
2023/11/06 01:21:31;;;;;;;2.97;1.60;;;13.60;66.70;;;;;;5040229;28;20724;-54
2023/11/06 01:23:57;;;;;;;3.80;1.80;;;13.60;66.90;;;;;;5033782;28;20196;-54
2023/11/06 01:26:23;;;;;;;1.20;1.07;;;13.60;67.00;;;;;;5034839;28;20534;-56
2023/11/06 01:28:48;;;;;;;4.10;1.20;;;13.60;66.60;;;;;;5033102;28;20393;-53
2023/11/06 01:31:15;;;;;;;1.90;1.00;;;13.60;66.60;;;;;;5032782;28;20193;-54
2023/11/06 01:33:40;;;;;;;1.90;1.20;;;13.50;66.20;;;;;;5031152;28;20273;-55
2023/11/06 01:36:08;;;;;;;4.03;1.37;;;13.30;67.00;;;;;;5030255;28;20523;-51
2023/11/06 01:38:34;;;;;;;3.27;1.40;;;13.40;67.20;;;;;;5037632;28;20212;-56
2023/11/06 01:41:00;;;;;;;1.97;1.57;;;13.40;67.30;;;;;;5035037;28;20806;-53
2023/11/06 01:43:26;;;;;;;2.30;1.30;;;13.40;67.10;;;;;;5029105;28;20867;-53
2023/11/06 01:45:52;;;;;;;2.70;1.60;;;13.50;66.90;;;;;;5026730;28;20220;-54
2023/11/06 01:48:19;;;;;;;2.43;1.17;;;13.40;66.40;;;;;;5030699;28;20743;-54
2023/11/06 01:50:46;;;;;;;1.57;1.13;;;13.30;66.70;;;;;;5027867;28;20497;-55
2023/11/06 01:53:13;;;;;;;7.50;2.20;;;13.40;66.50;;;;;;5028320;28;20551;-55
2023/11/06 01:55:42;;;;;;;2.53;1.20;;;13.50;66.50;;;;;;5031223;28;20446;-51
2023/11/06 01:58:11;;;;;;;2.77;1.07;;;13.60;66.40;;;;;;5035384;28;20478;-52
2023/11/06 02:00:39;;;;;;;6.47;1.50;;;13.60;66.00;;;;;;5026208;28;20444;-54
2023/11/06 02:03:06;;;;;;;1.63;0.93;;;13.70;65.60;;;;;;5035688;28;20597;-56
2023/11/06 02:05:31;;;;;;;3.57;1.10;;;13.70;65.50;;;;;;5032153;28;20543;-53
2023/11/06 02:07:58;;;;;;;4.13;1.43;;;13.70;65.40;;;;;;5031782;28;20568;-56
2023/11/06 02:10:24;;;;;;;1.97;1.10;;;13.70;65.10;;;;;;5029187;28;20248;-53
2023/11/06 02:12:49;;;;;;;1.73;1.10;;;13.90;64.60;;;;;;5033518;28;20428;-52
2023/11/06 02:15:15;;;;;;;2.93;1.37;;;13.90;64.30;;;;;;5035229;28;21056;-54
2023/11/06 02:17:42;;;;;;;2.50;0.97;;;13.90;64.40;;;;;;5032116;28;20202;-55
2023/11/06 02:20:09;;;;;;;2.93;1.20;;;13.90;64.90;;;;;;5029150;28;20591;-52
2023/11/06 02:22:36;;;;;;;3.27;1.03;;;13.90;64.10;;;;;;5035790;28;20444;-52
2023/11/06 02:25:02;;;;;;;1.67;0.90;;;13.80;64.50;;;;;;5033335;28;20455;-52
2023/11/06 02:27:28;;;;;;;4.70;1.00;;;13.90;64.30;;;;;;5028879;28;21268;-52
2023/11/06 02:29:54;;;;;;;2.03;1.20;;;13.90;64.20;;;;;;5031329;28;20221;-51
2023/11/06 02:32:21;;;;;;;2.40;0.90;;;13.70;64.40;;;;;;5030006;28;20813;-55
2023/11/06 02:34:46;;;;;;;1.13;0.83;;;13.60;64.80;;;;;;5030264;28;20261;-55
2023/11/06 02:37:12;;;;;;;2.20;1.07;;;13.60;64.70;;;;;;5031006;28;20530;-54
2023/11/06 02:39:37;;;;;;;1.33;0.73;;;13.70;64.70;;;;;;5031839;28;20232;-50
2023/11/06 02:42:04;;;;;;;2.20;1.30;;;13.60;64.80;;;;;;5030264;28;20243;-53
2023/11/06 02:44:30;;;;;;;4.77;1.30;;;13.50;65.10;;;;;;5031226;28;20193;-52
2023/11/06 02:46:56;;;;;;;2.80;1.20;;;13.40;65.30;;;;;;5030423;28;20446;-56
2023/11/06 02:49:23;;;;;;;3.13;1.13;;;13.20;65.80;;;;;;5032438;28;20217;-55
2023/11/06 02:51:50;;;;;;;3.37;1.13;;;13.10;66.40;;;;;;5032648;28;20196;-53
2023/11/06 02:54:16;;;;;;;2.10;0.80;;;13.10;66.50;;;;;;5034032;28;20574;-56
2023/11/06 02:56:41;;;;;;;1.93;1.10;;;13.00;66.60;;;;;;5029740;28;20508;-55
2023/11/06 02:59:07;;;;;;;1.60;0.97;;;13.00;66.70;;;;;;5030984;28;20463;-55
2023/11/06 03:01:34;;;;;;;2.93;0.93;;;13.10;66.60;;;;;;5030678;28;20201;-54
2023/11/06 03:04:00;;;;;;;1.47;1.20;;;13.30;66.20;;;;;;5031310;28;20198;-54
2023/11/06 03:06:27;;;;;;;3.40;1.33;;;13.10;66.10;;;;;;5030298;28;20907;-53
2023/11/06 03:08:54;;;;;;;1.23;0.80;;;13.00;66.50;;;;;;5036870;28;20515;-51
2023/11/06 03:11:20;;;;;;;7.57;1.20;;;12.90;66.90;;;;;;5033957;28;20440;-50
2023/11/06 03:13:46;;;;;;;2.50;1.00;;;12.90;66.80;;;;;;5034335;28;20486;-53
2023/11/06 03:16:12;;;;;;;2.77;0.80;;;13.00;67.00;;;;;;5037222;28;20420;-51
2023/11/06 03:18:37;;;;;;;2.97;0.90;;;12.90;66.70;;;;;;5032623;28;20295;-51
2023/11/06 03:21:03;;;;;;;1.63;1.20;;;12.80;66.90;;;;;;5034667;28;20451;-50
2023/11/06 03:23:30;;;;;;;1.53;1.07;;;12.80;67.20;;;;;;5033065;28;20186;-51
2023/11/06 03:25:55;;;;;;;2.00;1.10;;;13.00;66.90;;;;;;5027775;28;20458;-52
2023/11/06 03:28:21;;;;;;;1.53;0.90;;;12.90;66.60;;;;;;5028369;28;20464;-51
2023/11/06 03:30:46;;;;;;;1.17;0.77;;;13.00;66.70;;;;;;5027075;28;20194;-50
2023/11/06 03:33:12;;;;;;;1.80;0.77;;;12.90;66.60;;;;;;5031821;28;20251;-52
2023/11/06 03:35:38;;;;;;;2.90;1.00;;;12.80;67.40;;;;;;5027068;28;20197;-53
2023/11/06 03:38:03;;;;;;;3.27;1.07;;;12.90;67.40;;;;;;5029496;28;20663;-51
2023/11/06 03:40:29;;;;;;;4.07;1.20;;;12.80;67.20;;;;;;5022791;28;20213;-51
2023/11/06 03:42:54;;;;;;;2.30;1.00;;;12.80;67.40;;;;;;5030359;28;20398;-51
2023/11/06 03:45:20;;;;;;;1.20;0.93;;;12.80;67.70;;;;;;5032459;28;20212;-52
2023/11/06 03:47:45;;;;;;;3.20;0.80;;;12.90;67.00;;;;;;5031651;28;20659;-51
2023/11/06 03:50:11;;;;;;;2.10;1.03;;;13.10;66.70;;;;;;5026195;28;20229;-51
2023/11/06 03:52:37;;;;;;;2.67;1.10;;;13.20;66.50;;;;;;5024628;28;20220;-51
2023/11/06 03:55:03;;;;;;;1.73;1.00;;;13.10;66.20;;;;;;5025349;28;20185;-51
2023/11/06 03:57:29;;;;;;;2.40;1.00;;;13.10;66.40;;;;;;5025726;28;20189;-50
2023/11/06 03:59:55;;;;;;;2.10;0.93;;;13.00;66.80;;;;;;5024605;28;20462;-50
2023/11/06 04:02:20;;;;;;;1.63;0.80;;;13.00;66.80;;;;;;5026683;28;20193;-50
2023/11/06 04:04:49;;;;;;;2.70;0.90;;;12.90;67.10;;;;;;5029024;28;20205;-51
2023/11/06 04:07:15;;;;;;;1.80;0.90;;;12.90;67.20;;;;;;5026670;28;20575;-52
2023/11/06 04:09:41;;;;;;;4.13;1.00;;;13.00;67.20;;;;;;5033221;28;20480;-51
2023/11/06 04:12:07;;;;;;;1.83;1.43;;;13.10;66.80;;;;;;5032456;28;20656;-50
2023/11/06 04:14:33;;;;;;;1.70;0.70;;;13.10;66.90;;;;;;5032203;28;20448;-51
2023/11/06 04:16:59;;;;;;;2.30;0.80;;;13.10;67.00;;;;;;5028264;28;20462;-51
2023/11/06 04:19:25;;;;;;;3.50;1.03;;;13.00;66.70;;;;;;5030619;28;20209;-50
2023/11/06 04:21:51;;;;;;;1.10;0.70;;;13.00;67.00;;;;;;5027224;28;20862;-52
2023/11/06 04:24:17;;;;;;;2.40;0.77;;;13.10;66.90;;;;;;5033694;28;20450;-51
2023/11/06 04:26:43;;;;;;;1.30;0.80;;;13.20;66.40;;;;;;5026663;28;20526;-53
2023/11/06 04:29:08;;;;;;;3.40;0.90;;;13.20;66.60;;;;;;5028150;28;20311;-49
2023/11/06 04:31:34;;;;;;;2.70;0.90;;;13.30;66.40;;;;;;5025068;28;20200;-51
2023/11/06 04:33:59;;;;;;;2.20;0.90;;;13.50;66.30;;;;;;5029013;28;20276;-51
2023/11/06 04:36:25;;;;;;;1.10;1.00;;;13.60;65.70;;;;;;5029629;28;20201;-51
2023/11/06 04:38:51;;;;;;;2.30;0.80;;;13.70;65.30;;;;;;5034828;28;20213;-52
2023/11/06 04:41:16;;;;;;;3.03;1.13;;;13.60;65.10;;;;;;5035867;28;20280;-51
2023/11/06 04:43:42;;;;;;;3.20;1.00;;;13.60;65.80;;;;;;5029358;28;20440;-55
2023/11/06 04:46:07;;;;;;;3.37;1.10;;;13.80;65.60;;;;;;5035005;28;20698;-52
2023/11/06 04:48:33;;;;;;;3.93;1.20;;;13.80;65.20;;;;;;5029406;28;20782;-51
2023/11/06 04:50:58;;;;;;;2.93;0.97;;;13.80;65.10;;;;;;5034664;28;20223;-53
2023/11/06 04:53:24;;;;;;;4.70;1.00;;;13.90;64.60;;;;;;5028993;28;20193;-52
2023/11/06 04:55:49;;;;;;;3.30;0.80;;;14.00;64.50;;;;;;5034223;28;20657;-52
2023/11/06 04:58:15;;;;;;;1.80;0.87;;;13.90;64.40;;;;;;5038660;28;20300;-52
2023/11/06 05:00:41;;;;;;;3.53;0.90;;;13.80;64.70;;;;;;5029644;28;20181;-50
2023/11/06 05:03:07;;;;;;;2.30;1.30;;;13.80;64.80;;;;;;5035749;28;20185;-50
2023/11/06 05:05:33;;;;;;;2.63;0.90;;;13.80;64.80;;;;;;5029202;28;20440;-50
2023/11/06 05:07:58;;;;;;;1.10;0.70;;;13.80;64.40;;;;;;5037091;28;20223;-50
2023/11/06 05:10:24;;;;;;;3.77;2.63;;;13.90;64.00;;;;;;5038911;28;20470;-52
2023/11/06 05:12:49;;;;;;;3.63;1.20;;;13.90;63.70;;;;;;5037896;28;20268;-52
2023/11/06 05:15:15;;;;;;;1.87;1.10;;;13.80;63.80;;;;;;5039824;28;20189;-50
2023/11/06 05:17:41;;;;;;;1.73;0.80;;;13.70;64.00;;;;;;5033810;28;20684;-53
2023/11/06 05:20:09;;;;;;;1.00;0.90;;;13.50;64.30;;;;;;5039240;28;20219;-51
2023/11/06 05:22:37;;;;;;;1.73;0.90;;;13.20;65.10;;;;;;5030842;28;20208;-51
2023/11/06 05:25:03;;;;;;;2.00;1.03;;;13.10;65.90;;;;;;5025038;28;20788;-51
2023/11/06 05:27:29;;;;;;;2.50;0.87;;;12.80;66.50;;;;;;5023693;28;20436;-50
2023/11/06 05:29:54;;;;;;;1.80;0.90;;;12.80;67.30;;;;;;5023498;28;20477;-50
2023/11/06 05:32:20;;;;;;;3.70;1.10;;;12.80;67.20;;;;;;5023260;28;20224;-52
2023/11/06 05:34:45;;;;;;;2.03;0.70;;;12.80;68.30;;;;;;5024293;28;20247;-51
2023/11/06 05:37:11;;;;;;;3.80;1.07;;;12.90;67.30;;;;;;5024021;28;20555;-52
2023/11/06 05:39:39;;;;;;;2.40;0.87;;;13.00;66.70;;;;;;5024056;28;20206;-51
2023/11/06 05:42:08;;;;;;;2.40;1.20;;;12.90;66.50;;;;;;5033251;28;20200;-51
2023/11/06 05:44:33;;;;;;;2.10;0.90;;;12.90;66.80;;;;;;5036369;28;20460;-52
2023/11/06 05:46:59;;;;;;;2.00;0.77;;;12.90;67.10;;;;;;5030380;28;20809;-51
2023/11/06 05:49:25;;;;;;;3.60;1.10;;;13.00;66.60;;;;;;5030265;28;20221;-53
2023/11/06 05:51:50;;;;;;;0.80;0.80;;;13.10;66.10;;;;;;5027462;28;20205;-49
2023/11/06 05:54:17;;;;;;;2.70;0.90;;;13.10;65.60;;;;;;5032129;28;20235;-52
2023/11/06 05:56:43;;;;;;;0.93;0.90;;;13.00;65.90;;;;;;5031044;28;20188;-51
2023/11/06 05:59:09;;;;;;;4.37;0.80;;;13.00;66.00;;;;;;5030046;28;20468;-52
2023/11/06 06:01:36;;;;;;;2.77;1.17;;;13.20;65.60;;;;;;5028742;28;20554;-50
2023/11/06 06:04:01;;;;;;;1.20;0.80;;;13.30;65.20;;;;;;5035322;28;21018;-51
2023/11/06 06:06:27;;;;;;;2.27;0.97;;;13.40;64.80;;;;;;5029791;28;20193;-54
2023/11/06 06:08:53;;;;;;;5.07;1.00;;;13.40;64.50;;;;;;5038712;28;20418;-52
2023/11/06 06:11:18;;;;;;;1.43;0.90;;;13.40;64.50;;;;;;5028850;28;20293;-51
2023/11/06 06:13:45;;;;;;;1.90;0.90;;;13.60;63.90;;;;;;5033500;28;21702;-52
2023/11/06 06:16:11;;;;;;;2.33;0.80;;;13.70;63.30;;;;;;5040012;28;20181;-50
2023/11/06 06:18:37;;;;;;;4.90;1.10;;;13.80;63.20;;;;;;5032329;28;20463;-50
2023/11/06 06:21:02;;;;;;;1.70;0.70;;;13.80;63.00;;;;;;5033718;28;20196;-53
2023/11/06 06:23:28;;;;;;;2.73;0.80;;;13.90;62.90;;;;;;5031948;28;20704;-51
2023/11/06 06:25:53;;;;;;;7.17;1.00;;;14.00;62.40;;;;;;5033635;28;20217;-50
2023/11/06 06:28:19;;;;;;;0.73;0.70;;;14.10;62.20;;;;;;5026649;28;20216;-50
2023/11/06 06:30:44;;;;;;;1.30;1.00;;;14.30;61.80;;;;;;5031374;28;20173;-48
2023/11/06 06:33:10;;;;;;;2.23;1.80;;;14.40;61.40;;;;;;5032120;28;20638;-51
2023/11/06 06:35:36;;;;;;;3.43;2.03;;;14.50;61.60;;;;;;5035662;28;20189;-50
2023/11/06 06:38:01;;;;;;;3.00;1.70;;;14.60;61.30;;;;;;5032977;28;20611;-52
2023/11/06 06:40:27;;;;;;;1.60;1.50;;;14.80;61.10;;;;;;5037531;28;20200;-51
2023/11/06 06:42:52;;;;;;;1.73;1.50;;;14.90;60.70;;;;;;5032514;28;20196;-52
2023/11/06 06:45:18;;;;;;;2.60;1.33;;;15.30;60.50;;;;;;5029593;28;20223;-52
2023/11/06 06:47:44;;;;;;;1.20;1.00;;;16.00;59.80;;;;;;5029126;28;20193;-50
2023/11/06 06:50:09;;;;;;;2.03;1.07;;;16.80;57.00;;;;;;5031575;28;20266;-50
2023/11/06 06:52:35;;;;;;;2.60;1.00;;;17.50;54.90;;;;;;5037251;28;20735;-52
2023/11/06 06:55:00;;;;;;;1.93;1.10;;;18.20;53.20;;;;;;5035474;28;20189;-53
2023/11/06 06:57:26;;;;;;;1.40;0.97;;;18.70;51.90;;;;;;5033109;28;20272;-55
2023/11/06 06:59:52;;;;;;;1.93;0.90;;;19.20;50.60;;;;;;5035742;28;20205;-53
2023/11/06 07:02:17;;;;;;;4.40;0.90;;;19.60;49.90;;;;;;5033360;28;20566;-56
2023/11/06 07:04:44;;;;;;;2.10;1.00;;;19.70;49.00;;;;;;5037882;28;20621;-55
2023/11/06 07:07:10;;;;;;;3.03;1.20;;;19.90;48.60;;;;;;5032494;28;20182;-55
2023/11/06 07:09:35;;;;;;;6.03;1.40;;;20.10;48.10;;;;;;5037721;28;20537;-52
2023/11/06 07:12:03;;;;;;;8.03;1.20;;;20.20;48.00;;;;;;5042450;28;20180;-57
2023/11/06 07:14:28;;;;;;;5.53;1.13;;;20.30;47.90;;;;;;5042176;28;20185;-54
2023/11/06 07:16:57;;;;;;;5.43;1.03;;;20.20;47.20;;;;;;5035260;28;20475;-57
2023/11/06 07:19:24;;;;;;;1.30;0.90;;;20.00;47.80;;;;;;5037938;28;20842;-54
2023/11/06 07:21:50;;;;;;;3.33;0.97;;;19.90;48.10;;;;;;5031979;28;20947;-53
2023/11/06 07:24:15;;;;;;;2.77;0.80;;;19.80;48.00;;;;;;5029826;28;20542;-55
2023/11/06 07:26:41;;;;;;;2.20;0.93;;;19.80;48.00;;;;;;5032974;28;20538;-58
2023/11/06 07:29:06;;;;;;;3.80;0.83;;;19.60;48.50;;;;;;5034854;28;20221;-57
2023/11/06 07:31:32;;;;;;;4.50;1.10;;;19.50;48.20;;;;;;5025885;28;20189;-56
2023/11/06 07:33:57;;;;;;;4.43;1.10;;;19.30;48.60;;;;;;5037148;28;20195;-56
2023/11/06 07:36:23;;;;;;;1.70;1.10;;;19.20;49.30;;;;;;5036678;28;20680;-57
2023/11/06 07:38:48;;;;;;;2.13;0.80;;;19.10;49.50;;;;;;5032678;28;20684;-57
2023/11/06 07:41:14;;;;;;;2.17;1.07;;;19.20;49.60;;;;;;5033082;28;20192;-56
2023/11/06 07:43:40;;;;;;;1.50;0.97;;;19.10;49.60;;;;;;5031677;28;20652;-55
2023/11/06 07:46:06;;;;;;;3.13;0.93;;;18.70;50.00;;;;;;5032282;28;20178;-52
2023/11/06 07:48:31;;;;;;;1.27;0.93;;;18.50;50.70;;;;;;5031701;28;20641;-57
2023/11/06 07:50:57;;;;;;;2.60;1.00;;;18.50;50.70;;;;;;5031327;28;20200;-57
2023/11/06 07:53:23;;;;;;;1.53;0.90;;;18.50;51.10;;;;;;5035467;28;20189;-57
2023/11/06 07:55:49;;;;;;;2.10;0.70;;;18.50;50.80;;;;;;5033402;28;20435;-55
2023/11/06 07:58:15;;;;;;;4.50;1.30;;;18.40;51.70;;;;;;5041532;28;20679;-57
2023/11/06 08:00:41;;;;;;;1.80;1.70;;;18.40;51.40;;;;;;5037502;28;20499;-54
2023/11/06 08:03:06;;;;;;;1.50;1.30;;;18.30;52.00;;;;;;5041055;28;20184;-56
2023/11/06 08:05:32;;;;;;;1.27;1.13;;;18.20;51.80;;;;;;5033695;28;20436;-53
2023/11/06 08:07:58;;;;;;;2.23;1.40;;;18.20;52.20;;;;;;5031666;28;20280;-55
2023/11/06 08:10:27;;;;;;;1.43;1.00;;;18.00;52.30;;;;;;5035290;28;21022;-55
2023/11/06 08:12:53;;;;;;;3.20;1.40;;;17.80;52.60;;;;;;5038686;28;20299;-57
2023/11/06 08:15:19;;;;;;;1.20;0.90;;;17.70;53.30;;;;;;5030942;28;20428;-57
2023/11/06 08:17:45;;;;;;;1.80;0.97;;;17.60;53.30;;;;;;5031817;28;20428;-54
2023/11/06 08:20:11;;;;;;;2.63;1.00;;;17.60;53.30;;;;;;5030791;28;20831;-54
2023/11/06 08:22:37;;;;;;;1.00;0.90;;;17.60;53.50;;;;;;5040853;28;20220;-54
2023/11/06 08:25:03;;;;;;;2.60;1.10;;;17.50;53.40;;;;;;5035234;28;20459;-56
2023/11/06 08:27:28;;;;;;;3.80;1.30;;;17.40;53.80;;;;;;5029041;28;20661;-53
2023/11/06 08:29:55;;;;;;;1.73;1.50;;;17.30;54.00;;;;;;5033231;28;20632;-55
2023/11/06 08:32:20;;;;;;;2.37;1.00;;;17.10;54.10;;;;;;5040793;28;20181;-57
2023/11/06 08:34:47;;;;;;;2.00;1.20;;;16.80;54.70;;;;;;5039940;28;20527;-54
2023/11/06 08:37:14;;;;;;;1.70;0.90;;;16.70;55.20;;;;;;5027527;28;20192;-51
2023/11/06 08:39:46;;;;;;;1.70;1.00;;;16.60;55.90;;;;;;5031548;28;20450;-53
2023/11/06 08:42:12;;;;;;;2.67;1.10;;;16.50;55.40;;;;;;5031091;28;20451;-54
2023/11/06 08:44:40;;;;;;;1.50;1.13;;;16.40;55.90;;;;;;5036445;28;20459;-55
2023/11/06 08:47:07;;;;;;;10.83;2.63;;;16.40;55.80;;;;;;5042550;28;21079;-51
2023/11/06 08:49:33;;;;;;;1.20;1.10;;;16.50;56.10;;;;;;5041064;28;20491;-55
2023/11/06 08:51:59;;;;;;;3.30;1.23;;;16.50;55.80;;;;;;5031773;28;20435;-54
2023/11/06 08:54:24;;;;;;;2.70;1.00;;;16.70;56.10;;;;;;5030985;28;20227;-53
2023/11/06 08:56:50;;;;;;;2.27;1.27;;;16.90;55.80;;;;;;5029330;28;20213;-56
2023/11/06 08:59:15;;;;;;;1.83;1.10;;;16.90;55.80;;;;;;5030702;28;20209;-54
2023/11/06 09:01:47;;;;;;;1.93;1.17;;;16.90;55.50;;;;;;5031532;28;20197;-55
2023/11/06 09:04:12;;;;;;;3.40;1.20;;;17.00;55.50;;;;;;5037411;28;20236;-51
2023/11/06 09:06:40;;;;;;;2.30;1.03;;;17.20;55.30;;;;;;5027969;28;21146;-55
2023/11/06 09:09:08;;;;;;;2.83;1.10;;;17.30;54.70;;;;;;5026238;28;20278;-52
2023/11/06 09:11:38;;;;;;;4.70;1.30;;;17.30;54.80;;;;;;5035049;28;20823;-56
2023/11/06 09:14:04;;;;;;;1.70;1.50;;;17.30;54.30;;;;;;5035739;28;20455;-56
2023/11/06 09:16:34;;;;;;;2.33;1.10;;;17.50;54.50;;;;;;5032408;28;20444;-56
2023/11/06 09:19:00;;;;;;;2.60;0.97;;;17.50;53.60;;;;;;5036974;28;20459;-56
2023/11/06 09:21:25;;;;;;;1.43;0.97;;;17.50;53.50;;;;;;5034991;28;20882;-53
2023/11/06 09:23:52;;;;;;;3.10;1.27;;;17.40;53.30;;;;;;5034239;28;20443;-53
2023/11/06 09:26:19;;;;;;;1.93;1.00;;;17.30;53.70;;;;;;5032230;28;20182;-56
2023/11/06 09:28:44;;;;;;;1.97;0.90;;;17.30;54.00;;;;;;5033086;28;20476;-54
2023/11/06 09:31:10;;;;;;;0.90;0.70;;;17.40;53.80;;;;;;5034665;28;21010;-52
2023/11/06 09:33:36;;;;;;;0.93;0.80;;;17.30;53.90;;;;;;5034747;28;20189;-55
2023/11/06 09:36:02;;;;;;;2.53;1.03;;;17.50;54.10;;;;;;5032604;28;20203;-54
2023/11/06 09:38:28;;;;;;;1.87;0.97;;;17.70;53.40;;;;;;5031122;28;20570;-52
2023/11/06 09:40:54;;;;;;;1.67;1.10;;;17.80;53.30;;;;;;5041939;28;20570;-55
2023/11/06 09:43:20;;;;;;;3.37;1.33;;;17.90;53.00;;;;;;5029953;28;20201;-52
2023/11/06 09:45:46;;;;;;;3.10;1.03;;;18.10;52.60;;;;;;5028324;28;20205;-52
2023/11/06 09:48:17;;;;;;;1.63;1.17;;;18.20;52.30;;;;;;5033613;28;20494;-55
2023/11/06 09:50:46;;;;;;;3.20;1.20;;;18.40;52.00;;;;;;5030962;28;20282;-53
2023/11/06 09:53:12;;;;;;;2.47;0.93;;;18.30;51.20;;;;;;5028433;28;20831;-52
2023/11/06 09:55:40;;;;;;;1.87;0.70;;;18.40;51.20;;;;;;5027752;28;20451;-53
2023/11/06 09:58:06;;;;;;;1.67;1.10;;;18.30;51.40;;;;;;5031596;28;20841;-51
2023/11/06 10:00:32;;;;;;;1.03;0.90;;;18.20;51.10;;;;;;5026047;28;20446;-52
2023/11/06 10:02:57;;;;;;;1.07;0.90;;;18.50;51.10;;;;;;5037221;28;20447;-54
2023/11/06 10:05:24;;;;;;;4.27;0.93;;;18.90;51.20;;;;;;5029624;28;20951;-53
2023/11/06 10:07:54;;;;;;;2.33;0.77;;;18.90;50.30;;;;;;5039499;28;20197;-56
2023/11/06 10:10:25;;;;;;;3.43;1.00;;;18.90;49.60;;;;;;5044447;28;20477;-55
2023/11/06 10:13:13;;;;;;;0.80;0.70;;;18.70;49.80;;;;;;5031413;28;20501;-56
2023/11/06 10:15:39;;;;;;;1.50;0.93;;;18.70;49.90;;;;;;5034897;28;20440;-53
2023/11/06 10:18:13;;;;;;;3.13;1.00;;;18.90;49.50;;;;;;5036593;28;20473;-53
2023/11/06 10:20:50;;;;;;;1.70;1.03;;;19.00;49.80;;;;;;5029172;28;20497;-52
2023/11/06 10:23:24;;;;;;;2.70;1.00;;;19.00;49.30;;;;;;5034784;28;20955;-50
2023/11/06 10:25:54;;;;;;;2.60;1.13;;;19.20;49.30;;;;;;5025461;28;20936;-53
2023/11/06 10:28:21;;;;;;;2.00;1.00;;;19.50;49.00;;;;;;5033598;28;20474;-53
2023/11/06 10:30:51;;;;;;;2.40;1.03;;;19.80;48.60;;;;;;5038246;28;20537;-55
2023/11/06 10:33:18;;;;;;;2.80;1.10;;;19.80;47.50;;;;;;5033358;28;20446;-52
2023/11/06 10:35:45;;;;;;;1.00;0.90;;;19.90;47.10;;;;;;5031179;28;20447;-50
2023/11/06 10:38:30;;;;;;;1.90;0.80;;;19.80;47.30;;;;;;5029670;28;20444;-55
2023/11/06 10:41:24;;;;;;;1.30;0.97;;;19.80;47.30;;;;;;5028390;28;20444;-51
2023/11/06 10:43:56;;;;;;;0.90;0.80;;;19.60;47.10;;;;;;5026232;28;20459;-51
2023/11/06 10:46:25;;;;;;;2.30;0.93;;;19.80;47.50;;;;;;5033281;28;20482;-51
2023/11/06 10:49:03;;;;;;;2.40;0.90;;;19.90;47.50;;;;;;5039241;28;20519;-55
2023/11/06 10:51:30;;;;;;;2.73;0.97;;;19.80;46.80;;;;;;5032621;28;20558;-51
2023/11/06 10:53:58;;;;;;;0.60;0.60;;;20.10;47.00;;;;;;5025166;28;20969;-51
2023/11/06 10:56:24;;;;;;;3.53;0.90;;;20.10;46.10;;;;;;5029887;28;20535;-49
2023/11/06 10:58:54;;;;;;;2.50;0.90;;;20.00;45.50;;;;;;5038444;28;21058;-49
2023/11/06 11:01:22;;;;;;;4.80;1.30;;;19.80;45.80;;;;;;5041432;28;20442;-50
2023/11/06 11:03:50;;;;;;;0.80;0.77;;;19.80;46.50;;;;;;5035098;28;20444;-52
2023/11/06 11:06:16;;;;;;;2.20;1.00;;;19.70;46.30;;;;;;5030854;28;20447;-52
2023/11/06 11:08:42;;;;;;;3.03;0.80;;;19.70;46.80;;;;;;5036080;28;20455;-52
2023/11/06 11:11:09;;;;;;;1.10;0.73;;;19.60;46.80;;;;;;5035346;28;20454;-52
2023/11/06 11:13:35;;;;;;;1.67;0.70;;;19.50;47.00;;;;;;5037733;28;20192;-50
2023/11/06 11:16:35;;;;;;;0.93;0.70;;;19.50;46.80;;;;;;5038476;28;20841;-52
2023/11/06 11:19:00;;;;;;;1.03;0.77;;;19.00;46.90;;;;;;5030588;28;20567;-52
2023/11/06 11:22:04;;;;;;;1.43;0.80;;;18.70;47.50;;;;;;5039601;28;20893;-51
2023/11/06 11:24:49;;;;;;;1.53;0.80;;;18.40;48.20;;;;;;5032390;28;20189;-51
2023/11/06 11:27:17;;;;;;;1.43;0.67;;;18.30;48.30;;;;;;5035437;28;20450;-53
2023/11/06 11:29:54;;;;;;;1.17;0.70;;;18.10;48.30;;;;;;5040301;28;20499;-52
2023/11/06 11:32:49;;;;;;;0.73;0.73;;;18.10;48.90;;;;;;5039995;28;20778;-54
2023/11/06 11:35:17;;;;;;;0.90;0.60;;;18.00;49.10;;;;;;5031634;28;20440;-53
2023/11/06 11:37:53;;;;;;;1.60;0.70;;;18.00;49.30;;;;;;5036706;28;21101;-51
2023/11/06 11:40:19;;;;;;;1.60;0.83;;;17.90;50.20;;;;;;5033858;28;20466;-52
2023/11/06 11:42:44;;;;;;;0.60;0.60;;;18.00;49.40;;;;;;5034735;28;20440;-54
2023/11/06 11:45:29;;;;;;;0.93;0.73;;;17.90;49.80;;;;;;5029648;28;20721;-52
2023/11/06 11:47:55;;;;;;;1.80;0.80;;;17.70;49.80;;;;;;5026340;28;20200;-51
2023/11/06 11:50:27;;;;;;;1.00;0.70;;;17.60;50.10;;;;;;5029725;28;20471;-52
2023/11/06 11:52:53;;;;;;;1.83;0.70;;;17.60;50.50;;;;;;5035491;28;20191;-53
2023/11/06 11:55:29;;;;;;;1.83;1.00;;;17.70;50.00;;;;;;5037368;28;20526;-52
2023/11/06 11:58:10;;;;;;;2.03;0.77;;;17.90;50.30;;;;;;5036938;28;20428;-55
2023/11/06 12:00:37;;;;;;;1.10;0.93;;;18.10;50.10;;;;;;5028654;28;20459;-51
2023/11/06 12:03:06;;;;;;;1.00;0.90;;;18.20;50.10;;;;;;5035100;28;20965;-54
2023/11/06 12:05:32;;;;;;;1.67;0.80;;;18.00;50.10;;;;;;5029446;28;20436;-53
2023/11/06 12:07:58;;;;;;;2.67;0.90;;;18.00;50.40;;;;;;5040450;28;20429;-55
2023/11/06 12:10:29;;;;;;;0.67;0.60;;;18.00;50.50;;;;;;5035690;28;20231;-55
2023/11/06 12:12:58;;;;;;;2.63;0.90;;;17.90;50.10;;;;;;5035045;28;20305;-53
2023/11/06 12:15:32;;;;;;;1.37;1.00;;;17.80;50.10;;;;;;5032623;28;21146;-53
2023/11/06 12:18:06;;;;;;;1.17;0.80;;;17.80;50.50;;;;;;5034063;28;20532;-52
2023/11/06 12:20:32;;;;;;;1.13;0.80;;;18.00;50.30;;;;;;5030572;28;20577;-51
2023/11/06 12:23:00;;;;;;;1.30;0.93;;;18.10;50.20;;;;;;5038103;28;21813;-53
2023/11/06 12:25:33;;;;;;;1.03;0.93;;;18.30;50.40;;;;;;5035130;28;20477;-52
2023/11/06 12:28:10;;;;;;;1.17;0.97;;;18.30;49.90;;;;;;5029884;28;20520;-51
2023/11/06 12:30:38;;;;;;;0.70;0.70;;;17.90;49.70;;;;;;5029117;28;20494;-52
2023/11/06 12:33:14;;;;;;;0.60;0.60;;;17.70;50.30;;;;;;5029506;28;21130;-52
2023/11/06 12:35:43;;;;;;;1.57;0.73;;;17.70;50.90;;;;;;5029497;28;20459;-51
2023/11/06 12:38:09;;;;;;;2.97;0.90;;;17.60;50.80;;;;;;5034208;28;20416;-52
2023/11/06 12:40:41;;;;;;;0.70;0.70;;;17.60;50.80;;;;;;5037830;28;20435;-53
2023/11/06 12:43:07;;;;;;;0.70;0.70;;;17.30;50.80;;;;;;5029055;28;20191;-51
2023/11/06 12:45:40;;;;;;;1.10;0.90;;;17.40;51.30;;;;;;5035521;28;20456;-52
2023/11/06 12:48:29;;;;;;;1.40;0.70;;;17.20;51.50;;;;;;5033883;28;20264;-54